sensor_id;sensor_type;location;lat;lon;timestamp;temperature;humidity
38480;DHT22;62333;51.980;5.934;2023-02-28T00:01:29;16.10;59.10
38480;DHT22;62333;51.980;5.934;2023-02-28T00:03:54;16.10;59.20
38480;DHT22;62333;51.980;5.934;2023-02-28T00:06:20;16.00;59.10
38480;DHT22;62333;51.980;5.934;2023-02-28T00:08:46;16.00;59.10
38480;DHT22;62333;51.980;5.934;2023-02-28T00:11:14;16.00;59.20
38480;DHT22;62333;51.980;5.934;2023-02-28T00:13:43;16.00;59.20
38480;DHT22;62333;51.980;5.934;2023-02-28T00:16:14;16.00;59.20
38480;DHT22;62333;51.980;5.934;2023-02-28T00:18:40;16.00;59.20
38480;DHT22;62333;51.980;5.934;2023-02-28T00:21:07;16.00;59.30
38480;DHT22;62333;51.980;5.934;2023-02-28T00:23:32;16.00;59.30
38480;DHT22;62333;51.980;5.934;2023-02-28T00:25:58;16.00;59.30
38480;DHT22;62333;51.980;5.934;2023-02-28T00:28:24;16.00;59.30
38480;DHT22;62333;51.980;5.934;2023-02-28T00:30:50;16.00;59.30
38480;DHT22;62333;51.980;5.934;2023-02-28T00:33:16;16.00;59.30
38480;DHT22;62333;51.980;5.934;2023-02-28T00:35:42;15.90;59.30
38480;DHT22;62333;51.980;5.934;2023-02-28T00:38:07;15.90;59.30
38480;DHT22;62333;51.980;5.934;2023-02-28T00:40:33;15.90;59.30
38480;DHT22;62333;51.980;5.934;2023-02-28T00:42:59;15.90;59.30
38480;DHT22;62333;51.980;5.934;2023-02-28T00:45:24;15.90;59.30
38480;DHT22;62333;51.980;5.934;2023-02-28T00:47:50;15.90;59.40
38480;DHT22;62333;51.980;5.934;2023-02-28T00:50:18;15.90;59.40
38480;DHT22;62333;51.980;5.934;2023-02-28T00:52:44;15.90;59.40
38480;DHT22;62333;51.980;5.934;2023-02-28T00:55:09;15.90;59.40
38480;DHT22;62333;51.980;5.934;2023-02-28T00:57:35;15.90;59.40
38480;DHT22;62333;51.980;5.934;2023-02-28T01:00:01;15.90;59.40
38480;DHT22;62333;51.980;5.934;2023-02-28T01:02:28;15.80;59.30
38480;DHT22;62333;51.980;5.934;2023-02-28T01:04:53;15.80;59.30
38480;DHT22;62333;51.980;5.934;2023-02-28T01:07:19;15.80;59.30
38480;DHT22;62333;51.980;5.934;2023-02-28T01:09:45;15.80;59.40
38480;DHT22;62333;51.980;5.934;2023-02-28T01:12:10;15.80;59.30
38480;DHT22;62333;51.980;5.934;2023-02-28T01:14:36;15.80;59.30
38480;DHT22;62333;51.980;5.934;2023-02-28T01:17:02;15.80;59.40
38480;DHT22;62333;51.980;5.934;2023-02-28T01:19:28;15.80;59.40
38480;DHT22;62333;51.980;5.934;2023-02-28T01:21:53;15.80;59.40
38480;DHT22;62333;51.980;5.934;2023-02-28T01:24:19;15.80;59.40
38480;DHT22;62333;51.980;5.934;2023-02-28T01:26:44;15.80;59.40
38480;DHT22;62333;51.980;5.934;2023-02-28T01:29:10;15.80;59.40
38480;DHT22;62333;51.980;5.934;2023-02-28T01:31:36;15.80;59.40
38480;DHT22;62333;51.980;5.934;2023-02-28T01:34:02;15.80;59.40
38480;DHT22;62333;51.980;5.934;2023-02-28T01:36:28;15.70;59.40
38480;DHT22;62333;51.980;5.934;2023-02-28T01:38:54;15.80;59.40
38480;DHT22;62333;51.980;5.934;2023-02-28T01:41:23;15.80;59.40
38480;DHT22;62333;51.980;5.934;2023-02-28T01:46:15;15.70;59.40
38480;DHT22;62333;51.980;5.934;2023-02-28T01:48:50;15.70;59.40
38480;DHT22;62333;51.980;5.934;2023-02-28T01:51:31;15.70;59.40
38480;DHT22;62333;51.980;5.934;2023-02-28T01:54:05;15.70;59.40
38480;DHT22;62333;51.980;5.934;2023-02-28T01:56:40;15.70;59.40
38480;DHT22;62333;51.980;5.934;2023-02-28T01:59:07;15.70;59.40
38480;DHT22;62333;51.980;5.934;2023-02-28T02:01:32;15.70;59.50
38480;DHT22;62333;51.980;5.934;2023-02-28T02:04:01;15.70;59.50
38480;DHT22;62333;51.980;5.934;2023-02-28T02:06:43;15.70;59.40
38480;DHT22;62333;51.980;5.934;2023-02-28T02:09:09;15.70;59.40
38480;DHT22;62333;51.980;5.934;2023-02-28T02:11:36;15.60;59.40
38480;DHT22;62333;51.980;5.934;2023-02-28T02:17:24;15.60;59.40
38480;DHT22;62333;51.980;5.934;2023-02-28T02:28:15;15.60;59.50
38480;DHT22;62333;51.980;5.934;2023-02-28T02:36:07;15.60;59.50
38480;DHT22;62333;51.980;5.934;2023-02-28T02:41:39;15.60;59.50
38480;DHT22;62333;51.980;5.934;2023-02-28T02:44:27;15.60;59.40
38480;DHT22;62333;51.980;5.934;2023-02-28T02:46:59;15.60;59.50
38480;DHT22;62333;51.980;5.934;2023-02-28T02:49:32;15.50;59.50
38480;DHT22;62333;51.980;5.934;2023-02-28T02:52:03;15.60;59.50
38480;DHT22;62333;51.980;5.934;2023-02-28T02:54:36;15.50;59.40
38480;DHT22;62333;51.980;5.934;2023-02-28T02:57:12;15.50;59.50
38480;DHT22;62333;51.980;5.934;2023-02-28T02:59:40;15.60;59.50
38480;DHT22;62333;51.980;5.934;2023-02-28T03:02:11;15.50;59.40
38480;DHT22;62333;51.980;5.934;2023-02-28T03:04:51;15.50;59.50
38480;DHT22;62333;51.980;5.934;2023-02-28T03:07:17;15.50;59.50
38480;DHT22;62333;51.980;5.934;2023-02-28T03:09:54;15.50;59.50
38480;DHT22;62333;51.980;5.934;2023-02-28T03:12:20;15.50;59.50
38480;DHT22;62333;51.980;5.934;2023-02-28T03:15:17;15.50;59.50
38480;DHT22;62333;51.980;5.934;2023-02-28T03:18:10;15.50;59.40
38480;DHT22;62333;51.980;5.934;2023-02-28T03:23:25;15.50;59.50
38480;DHT22;62333;51.980;5.934;2023-02-28T03:26:05;15.50;59.50
38480;DHT22;62333;51.980;5.934;2023-02-28T03:28:48;15.50;59.50
38480;DHT22;62333;51.980;5.934;2023-02-28T03:31:20;15.50;59.60
38480;DHT22;62333;51.980;5.934;2023-02-28T03:36:41;15.50;59.50
38480;DHT22;62333;51.980;5.934;2023-02-28T03:39:16;15.50;59.60
38480;DHT22;62333;51.980;5.934;2023-02-28T03:42:02;15.40;59.50
38480;DHT22;62333;51.980;5.934;2023-02-28T03:44:41;15.40;59.50
38480;DHT22;62333;51.980;5.934;2023-02-28T03:47:12;15.40;59.50
38480;DHT22;62333;51.980;5.934;2023-02-28T03:49:56;15.40;59.50
38480;DHT22;62333;51.980;5.934;2023-02-28T03:52:27;15.40;59.60
38480;DHT22;62333;51.980;5.934;2023-02-28T03:54:56;15.50;59.60
38480;DHT22;62333;51.980;5.934;2023-02-28T03:57:28;15.40;59.60
38480;DHT22;62333;51.980;5.934;2023-02-28T04:00:04;15.40;59.60
38480;DHT22;62333;51.980;5.934;2023-02-28T04:02:31;15.40;59.60
38480;DHT22;62333;51.980;5.934;2023-02-28T04:04:57;15.40;59.60
38480;DHT22;62333;51.980;5.934;2023-02-28T04:07:29;15.40;59.50
38480;DHT22;62333;51.980;5.934;2023-02-28T04:09:55;15.40;59.60
38480;DHT22;62333;51.980;5.934;2023-02-28T04:12:21;15.40;59.60
38480;DHT22;62333;51.980;5.934;2023-02-28T04:14:49;15.40;59.50
38480;DHT22;62333;51.980;5.934;2023-02-28T04:17:15;15.40;59.60
38480;DHT22;62333;51.980;5.934;2023-02-28T04:19:40;15.40;59.50
38480;DHT22;62333;51.980;5.934;2023-02-28T04:22:08;15.40;59.50
38480;DHT22;62333;51.980;5.934;2023-02-28T04:24:34;15.40;59.50
38480;DHT22;62333;51.980;5.934;2023-02-28T04:26:59;15.40;59.50
38480;DHT22;62333;51.980;5.934;2023-02-28T04:29:30;15.40;59.50
38480;DHT22;62333;51.980;5.934;2023-02-28T04:31:57;15.40;59.50
38480;DHT22;62333;51.980;5.934;2023-02-28T04:34:28;15.40;59.50
38480;DHT22;62333;51.980;5.934;2023-02-28T04:36:54;15.30;59.40
38480;DHT22;62333;51.980;5.934;2023-02-28T04:39:21;15.40;59.50
38480;DHT22;62333;51.980;5.934;2023-02-28T04:41:47;15.30;59.40
38480;DHT22;62333;51.980;5.934;2023-02-28T04:44:13;15.40;59.50
38480;DHT22;62333;51.980;5.934;2023-02-28T04:46:39;15.40;59.50
38480;DHT22;62333;51.980;5.934;2023-02-28T04:49:04;15.30;59.40
38480;DHT22;62333;51.980;5.934;2023-02-28T04:51:30;15.30;59.40
38480;DHT22;62333;51.980;5.934;2023-02-28T04:53:56;15.40;59.40
38480;DHT22;62333;51.980;5.934;2023-02-28T04:56:22;15.30;59.40
38480;DHT22;62333;51.980;5.934;2023-02-28T04:58:48;15.30;59.40
38480;DHT22;62333;51.980;5.934;2023-02-28T05:01:22;15.40;59.40
38480;DHT22;62333;51.980;5.934;2023-02-28T05:03:49;15.30;59.30
38480;DHT22;62333;51.980;5.934;2023-02-28T05:06:15;15.30;59.30
38480;DHT22;62333;51.980;5.934;2023-02-28T05:08:41;15.30;59.30
38480;DHT22;62333;51.980;5.934;2023-02-28T05:11:32;15.30;59.30
38480;DHT22;62333;51.980;5.934;2023-02-28T05:14:02;15.30;59.30
38480;DHT22;62333;51.980;5.934;2023-02-28T05:16:28;15.30;59.30
38480;DHT22;62333;51.980;5.934;2023-02-28T05:18:54;15.30;59.30
38480;DHT22;62333;51.980;5.934;2023-02-28T05:21:40;15.20;59.20
38480;DHT22;62333;51.980;5.934;2023-02-28T05:24:10;15.30;59.20
38480;DHT22;62333;51.980;5.934;2023-02-28T05:26:38;15.30;59.30
38480;DHT22;62333;51.980;5.934;2023-02-28T05:29:04;15.20;59.20
38480;DHT22;62333;51.980;5.934;2023-02-28T05:31:30;15.30;59.30
38480;DHT22;62333;51.980;5.934;2023-02-28T05:33:56;15.30;59.20
38480;DHT22;62333;51.980;5.934;2023-02-28T05:36:21;15.20;59.20
38480;DHT22;62333;51.980;5.934;2023-02-28T05:38:48;15.20;59.10
38480;DHT22;62333;51.980;5.934;2023-02-28T05:41:14;15.20;59.20
38480;DHT22;62333;51.980;5.934;2023-02-28T05:43:40;15.20;59.20
38480;DHT22;62333;51.980;5.934;2023-02-28T05:46:07;15.20;59.10
38480;DHT22;62333;51.980;5.934;2023-02-28T05:48:37;15.20;59.10
38480;DHT22;62333;51.980;5.934;2023-02-28T05:51:04;15.20;59.20
38480;DHT22;62333;51.980;5.934;2023-02-28T05:53:30;15.20;59.20
38480;DHT22;62333;51.980;5.934;2023-02-28T05:55:55;15.20;59.30
38480;DHT22;62333;51.980;5.934;2023-02-28T05:58:21;15.20;59.30
38480;DHT22;62333;51.980;5.934;2023-02-28T06:00:47;15.20;59.30
38480;DHT22;62333;51.980;5.934;2023-02-28T06:03:13;15.20;59.30
38480;DHT22;62333;51.980;5.934;2023-02-28T06:05:39;15.20;59.30
38480;DHT22;62333;51.980;5.934;2023-02-28T06:08:05;15.20;59.30
38480;DHT22;62333;51.980;5.934;2023-02-28T06:10:34;15.20;59.30
38480;DHT22;62333;51.980;5.934;2023-02-28T06:13:01;15.20;59.30
38480;DHT22;62333;51.980;5.934;2023-02-28T06:15:28;15.20;59.40
38480;DHT22;62333;51.980;5.934;2023-02-28T06:17:53;15.20;59.40
38480;DHT22;62333;51.980;5.934;2023-02-28T06:20:21;15.20;59.40
38480;DHT22;62333;51.980;5.934;2023-02-28T06:22:47;15.20;59.40
38480;DHT22;62333;51.980;5.934;2023-02-28T06:25:13;15.20;59.40
38480;DHT22;62333;51.980;5.934;2023-02-28T06:27:38;15.20;59.40
38480;DHT22;62333;51.980;5.934;2023-02-28T06:30:05;15.10;59.30
38480;DHT22;62333;51.980;5.934;2023-02-28T06:32:30;15.10;59.30
38480;DHT22;62333;51.980;5.934;2023-02-28T06:34:56;15.10;59.30
38480;DHT22;62333;51.980;5.934;2023-02-28T06:37:23;15.10;59.30
38480;DHT22;62333;51.980;5.934;2023-02-28T06:39:51;15.10;59.30
38480;DHT22;62333;51.980;5.934;2023-02-28T06:42:17;15.10;59.30
38480;DHT22;62333;51.980;5.934;2023-02-28T06:44:43;15.10;59.20
38480;DHT22;62333;51.980;5.934;2023-02-28T06:47:09;15.10;59.20
38480;DHT22;62333;51.980;5.934;2023-02-28T06:49:35;15.10;59.20
38480;DHT22;62333;51.980;5.934;2023-02-28T06:52:01;15.10;59.20
38480;DHT22;62333;51.980;5.934;2023-02-28T06:54:27;15.10;59.10
38480;DHT22;62333;51.980;5.934;2023-02-28T06:56:52;15.10;59.80
38480;DHT22;62333;51.980;5.934;2023-02-28T06:59:20;15.10;59.20
38480;DHT22;62333;51.980;5.934;2023-02-28T07:01:46;15.10;59.10
38480;DHT22;62333;51.980;5.934;2023-02-28T07:04:11;15.10;59.20
38480;DHT22;62333;51.980;5.934;2023-02-28T07:06:38;15.10;59.10
38480;DHT22;62333;51.980;5.934;2023-02-28T07:09:04;15.10;59.10
38480;DHT22;62333;51.980;5.934;2023-02-28T07:11:30;15.10;59.10
38480;DHT22;62333;51.980;5.934;2023-02-28T07:13:56;15.10;59.10
38480;DHT22;62333;51.980;5.934;2023-02-28T07:16:24;15.00;59.00
38480;DHT22;62333;51.980;5.934;2023-02-28T07:18:52;15.10;59.10
38480;DHT22;62333;51.980;5.934;2023-02-28T07:21:18;15.10;59.10
38480;DHT22;62333;51.980;5.934;2023-02-28T07:23:44;15.00;59.00
38480;DHT22;62333;51.980;5.934;2023-02-28T07:26:16;15.10;59.10
38480;DHT22;62333;51.980;5.934;2023-02-28T07:28:43;15.10;59.00
38480;DHT22;62333;51.980;5.934;2023-02-28T07:31:10;15.00;59.00
38480;DHT22;62333;51.980;5.934;2023-02-28T07:33:36;15.00;58.90
38480;DHT22;62333;51.980;5.934;2023-02-28T07:36:08;15.10;59.00
38480;DHT22;62333;51.980;5.934;2023-02-28T07:38:35;15.10;59.00
38480;DHT22;62333;51.980;5.934;2023-02-28T07:41:02;15.00;58.90
38480;DHT22;62333;51.980;5.934;2023-02-28T07:43:31;15.00;58.90
38480;DHT22;62333;51.980;5.934;2023-02-28T07:46:11;15.00;58.90
38480;DHT22;62333;51.980;5.934;2023-02-28T07:48:37;15.00;58.90
38480;DHT22;62333;51.980;5.934;2023-02-28T07:51:03;15.10;58.90
38480;DHT22;62333;51.980;5.934;2023-02-28T07:53:29;15.10;58.90
38480;DHT22;62333;51.980;5.934;2023-02-28T07:55:57;15.00;58.90
38480;DHT22;62333;51.980;5.934;2023-02-28T07:58:23;15.10;58.90
38480;DHT22;62333;51.980;5.934;2023-02-28T08:00:49;15.10;58.90
38480;DHT22;62333;51.980;5.934;2023-02-28T08:03:17;15.10;58.90
38480;DHT22;62333;51.980;5.934;2023-02-28T08:05:43;15.10;58.80
38480;DHT22;62333;51.980;5.934;2023-02-28T08:08:09;15.20;58.80
38480;DHT22;62333;51.980;5.934;2023-02-28T08:10:34;15.20;58.80
38480;DHT22;62333;51.980;5.934;2023-02-28T08:13:00;15.20;58.90
38480;DHT22;62333;51.980;5.934;2023-02-28T08:15:26;15.20;59.00
38480;DHT22;62333;51.980;5.934;2023-02-28T08:17:52;15.30;59.30
38480;DHT22;62333;51.980;5.934;2023-02-28T08:20:17;15.30;59.40
38480;DHT22;62333;51.980;5.934;2023-02-28T08:22:44;15.40;59.40
38480;DHT22;62333;51.980;5.934;2023-02-28T08:25:09;15.40;59.40
38480;DHT22;62333;51.980;5.934;2023-02-28T08:27:36;15.40;59.50
38480;DHT22;62333;51.980;5.934;2023-02-28T08:30:03;15.40;59.60
38480;DHT22;62333;51.980;5.934;2023-02-28T08:32:30;15.40;59.60
38480;DHT22;62333;51.980;5.934;2023-02-28T08:34:57;15.40;59.60
38480;DHT22;62333;51.980;5.934;2023-02-28T08:37:22;15.40;59.70
38480;DHT22;62333;51.980;5.934;2023-02-28T08:39:48;15.50;59.70
38480;DHT22;62333;51.980;5.934;2023-02-28T08:42:14;15.50;59.70
38480;DHT22;62333;51.980;5.934;2023-02-28T08:44:40;15.50;59.70
38480;DHT22;62333;51.980;5.934;2023-02-28T08:47:06;15.50;59.70
38480;DHT22;62333;51.980;5.934;2023-02-28T08:49:32;15.50;59.60
38480;DHT22;62333;51.980;5.934;2023-02-28T08:51:57;15.50;60.20
38480;DHT22;62333;51.980;5.934;2023-02-28T08:54:24;15.50;59.60
38480;DHT22;62333;51.980;5.934;2023-02-28T08:56:49;15.40;55.20
38480;DHT22;62333;51.980;5.934;2023-02-28T09:01:41;14.50;69.50
38480;DHT22;62333;51.980;5.934;2023-02-28T09:04:09;13.90;48.10
38480;DHT22;62333;51.980;5.934;2023-02-28T09:06:36;13.40;47.40
38480;DHT22;62333;51.980;5.934;2023-02-28T09:09:02;12.90;46.50
38480;DHT22;62333;51.980;5.934;2023-02-28T09:11:29;12.60;46.10
38480;DHT22;62333;51.980;5.934;2023-02-28T09:13:55;12.30;44.90
38480;DHT22;62333;51.980;5.934;2023-02-28T09:16:21;11.90;45.40
38480;DHT22;62333;51.980;5.934;2023-02-28T09:18:47;11.50;43.20
38480;DHT22;62333;51.980;5.934;2023-02-28T09:21:16;11.20;43.80
38480;DHT22;62333;51.980;5.934;2023-02-28T09:23:46;11.00;43.80
38480;DHT22;62333;51.980;5.934;2023-02-28T09:26:18;10.80;42.90
38480;DHT22;62333;51.980;5.934;2023-02-28T09:28:45;10.70;43.60
38480;DHT22;62333;51.980;5.934;2023-02-28T09:31:14;10.70;43.90
38480;DHT22;62333;51.980;5.934;2023-02-28T09:33:40;10.70;43.90
38480;DHT22;62333;51.980;5.934;2023-02-28T09:36:06;10.70;43.70
38480;DHT22;62333;51.980;5.934;2023-02-28T09:38:31;10.60;42.40
38480;DHT22;62333;51.980;5.934;2023-02-28T09:41:01;10.40;42.10
38480;DHT22;62333;51.980;5.934;2023-02-28T09:43:31;10.30;42.50
38480;DHT22;62333;51.980;5.934;2023-02-28T09:46:26;10.20;41.10
38480;DHT22;62333;51.980;5.934;2023-02-28T09:48:53;10.10;41.40
38480;DHT22;62333;51.980;5.934;2023-02-28T09:53:56;10.00;41.10
38480;DHT22;62333;51.980;5.934;2023-02-28T09:59:05;10.10;41.70
38480;DHT22;62333;51.980;5.934;2023-02-28T10:02:53;10.20;41.80
38480;DHT22;62333;51.980;5.934;2023-02-28T10:05:12;10.40;41.00
38480;DHT22;62333;51.980;5.934;2023-02-28T10:08:08;10.30;38.80
38480;DHT22;62333;51.980;5.934;2023-02-28T10:11:12;10.30;39.20
38480;DHT22;62333;51.980;5.934;2023-02-28T10:13:59;10.30;38.80
38480;DHT22;62333;51.980;5.934;2023-02-28T10:16:40;10.30;38.80
38480;DHT22;62333;51.980;5.934;2023-02-28T10:19:24;10.20;38.30
38480;DHT22;62333;51.980;5.934;2023-02-28T10:22:11;10.30;38.40
38480;DHT22;62333;51.980;5.934;2023-02-28T10:24:41;10.30;37.80
38480;DHT22;62333;51.980;5.934;2023-02-28T10:27:19;10.30;38.10
38480;DHT22;62333;51.980;5.934;2023-02-28T10:29:50;10.40;37.80
38480;DHT22;62333;51.980;5.934;2023-02-28T10:32:30;10.40;37.90
38480;DHT22;62333;51.980;5.934;2023-02-28T10:37:26;10.40;37.30
38480;DHT22;62333;51.980;5.934;2023-02-28T10:39:52;10.60;38.10
38480;DHT22;62333;51.980;5.934;2023-02-28T10:47:30;11.30;38.10
38480;DHT22;62333;51.980;5.934;2023-02-28T10:49:57;11.40;38.10
38480;DHT22;62333;51.980;5.934;2023-02-28T10:52:38;11.60;37.70
38480;DHT22;62333;51.980;5.934;2023-02-28T10:55:22;11.80;37.60
38480;DHT22;62333;51.980;5.934;2023-02-28T10:57:49;11.90;37.30
38480;DHT22;62333;51.980;5.934;2023-02-28T11:00:16;12.00;36.90
38480;DHT22;62333;51.980;5.934;2023-02-28T11:02:44;12.10;36.90
38480;DHT22;62333;51.980;5.934;2023-02-28T11:07:56;12.30;37.00
38480;DHT22;62333;51.980;5.934;2023-02-28T11:10:25;12.40;36.70
38480;DHT22;62333;51.980;5.934;2023-02-28T11:12:56;12.50;36.70
38480;DHT22;62333;51.980;5.934;2023-02-28T11:15:27;12.60;36.30
38480;DHT22;62333;51.980;5.934;2023-02-28T11:20:49;12.70;36.30
38480;DHT22;62333;51.980;5.934;2023-02-28T11:23:16;12.80;36.40
38480;DHT22;62333;51.980;5.934;2023-02-28T11:25:50;12.70;35.20
38480;DHT22;62333;51.980;5.934;2023-02-28T11:28:31;12.70;35.50
38480;DHT22;62333;51.980;5.934;2023-02-28T11:33:43;13.00;35.50
38480;DHT22;62333;51.980;5.934;2023-02-28T11:38:42;13.20;34.70
38480;DHT22;62333;51.980;5.934;2023-02-28T11:41:14;13.30;34.30
38480;DHT22;62333;51.980;5.934;2023-02-28T11:46:41;13.50;34.10
38480;DHT22;62333;51.980;5.934;2023-02-28T11:49:25;13.60;32.80
38480;DHT22;62333;51.980;5.934;2023-02-28T11:52:03;13.50;32.90
38480;DHT22;62333;51.980;5.934;2023-02-28T11:55:28;13.50;33.20
38480;DHT22;62333;51.980;5.934;2023-02-28T12:03:04;13.90;33.10
38480;DHT22;62333;51.980;5.934;2023-02-28T12:05:50;14.10;33.20
38480;DHT22;62333;51.980;5.934;2023-02-28T12:13:29;14.90;33.10
38480;DHT22;62333;51.980;5.934;2023-02-28T12:18:37;15.00;32.60
38480;DHT22;62333;51.980;5.934;2023-02-28T12:21:22;15.00;32.40
38480;DHT22;62333;51.980;5.934;2023-02-28T12:26:46;14.70;32.50
38480;DHT22;62333;51.980;5.934;2023-02-28T12:29:28;14.50;32.20
38480;DHT22;62333;51.980;5.934;2023-02-28T12:32:14;14.40;32.30
38480;DHT22;62333;51.980;5.934;2023-02-28T12:34:46;14.10;32.20
38480;DHT22;62333;51.980;5.934;2023-02-28T12:37:30;14.00;32.40
38480;DHT22;62333;51.980;5.934;2023-02-28T12:40:02;13.80;32.70
38480;DHT22;62333;51.980;5.934;2023-02-28T12:43:13;13.60;32.80
38480;DHT22;62333;51.980;5.934;2023-02-28T12:45:56;13.50;33.50
38480;DHT22;62333;51.980;5.934;2023-02-28T12:48:37;13.40;32.50
38480;DHT22;62333;51.980;5.934;2023-02-28T12:51:06;13.20;33.30
38480;DHT22;62333;51.980;5.934;2023-02-28T12:56:57;13.10;33.10
38480;DHT22;62333;51.980;5.934;2023-02-28T12:59:27;13.00;32.80
38480;DHT22;62333;51.980;5.934;2023-02-28T13:02:24;12.90;32.90
38480;DHT22;62333;51.980;5.934;2023-02-28T13:11:01;12.80;33.10
38480;DHT22;62333;51.980;5.934;2023-02-28T13:13:29;12.70;33.20
38480;DHT22;62333;51.980;5.934;2023-02-28T13:16:05;12.70;33.30
38480;DHT22;62333;51.980;5.934;2023-02-28T13:20:59;12.70;33.30
38480;DHT22;62333;51.980;5.934;2023-02-28T13:26:09;12.70;33.60
38480;DHT22;62333;51.980;5.934;2023-02-28T13:34:21;12.60;33.30
38480;DHT22;62333;51.980;5.934;2023-02-28T13:36:47;12.50;33.20
38480;DHT22;62333;51.980;5.934;2023-02-28T13:42:34;12.30;33.40
38480;DHT22;62333;51.980;5.934;2023-02-28T13:50:29;12.10;33.60
38480;DHT22;62333;51.980;5.934;2023-02-28T13:55:56;12.00;33.50
38480;DHT22;62333;51.980;5.934;2023-02-28T14:04:46;12.10;34.10
38480;DHT22;62333;51.980;5.934;2023-02-28T14:07:48;12.10;34.00
38480;DHT22;62333;51.980;5.934;2023-02-28T14:13:13;12.10;33.90
38480;DHT22;62333;51.980;5.934;2023-02-28T14:18:23;12.00;33.90
38480;DHT22;62333;51.980;5.934;2023-02-28T14:20:54;11.80;33.70
38480;DHT22;62333;51.980;5.934;2023-02-28T14:37:38;11.80;34.90
38480;DHT22;62333;51.980;5.934;2023-02-28T14:40:16;11.80;35.00
38480;DHT22;62333;51.980;5.934;2023-02-28T14:42:48;11.80;35.10
38480;DHT22;62333;51.980;5.934;2023-02-28T14:45:20;11.90;35.00
38480;DHT22;62333;51.980;5.934;2023-02-28T14:47:47;11.80;34.80
38480;DHT22;62333;51.980;5.934;2023-02-28T14:50:26;11.70;34.80
38480;DHT22;62333;51.980;5.934;2023-02-28T14:52:53;11.50;34.90
38480;DHT22;62333;51.980;5.934;2023-02-28T14:55:24;11.40;34.80
38480;DHT22;62333;51.980;5.934;2023-02-28T14:57:57;11.30;34.90
38480;DHT22;62333;51.980;5.934;2023-02-28T15:00:29;11.20;35.10
38480;DHT22;62333;51.980;5.934;2023-02-28T15:02:56;11.00;35.20
38480;DHT22;62333;51.980;5.934;2023-02-28T15:05:29;10.90;35.40
38480;DHT22;62333;51.980;5.934;2023-02-28T15:08:14;10.90;35.60
38480;DHT22;62333;51.980;5.934;2023-02-28T15:10:44;10.80;35.70
38480;DHT22;62333;51.980;5.934;2023-02-28T15:13:13;10.70;35.80
38480;DHT22;62333;51.980;5.934;2023-02-28T15:18:26;10.60;35.90
38480;DHT22;62333;51.980;5.934;2023-02-28T15:20:52;10.40;36.00
38480;DHT22;62333;51.980;5.934;2023-02-28T15:23:21;10.40;36.00
38480;DHT22;62333;51.980;5.934;2023-02-28T15:25:47;10.30;36.30
38480;DHT22;62333;51.980;5.934;2023-02-28T15:28:16;10.20;36.40
38480;DHT22;62333;51.980;5.934;2023-02-28T15:30:52;10.20;36.60
38480;DHT22;62333;51.980;5.934;2023-02-28T15:33:26;10.10;36.70
38480;DHT22;62333;51.980;5.934;2023-02-28T15:36:25;10.00;36.60
38480;DHT22;62333;51.980;5.934;2023-02-28T15:38:51;9.90;36.70
38480;DHT22;62333;51.980;5.934;2023-02-28T15:41:28;9.90;36.80
38480;DHT22;62333;51.980;5.934;2023-02-28T15:44:33;9.90;37.00
38480;DHT22;62333;51.980;5.934;2023-02-28T15:47:16;9.80;37.00
38480;DHT22;62333;51.980;5.934;2023-02-28T15:50:12;9.70;37.00
38480;DHT22;62333;51.980;5.934;2023-02-28T15:52:44;9.60;37.10
38480;DHT22;62333;51.980;5.934;2023-02-28T15:55:22;9.50;37.30
38480;DHT22;62333;51.980;5.934;2023-02-28T15:57:51;9.40;37.50
38480;DHT22;62333;51.980;5.934;2023-02-28T16:00:26;9.40;37.70
38480;DHT22;62333;51.980;5.934;2023-02-28T16:02:52;9.30;37.90
38480;DHT22;62333;51.980;5.934;2023-02-28T16:05:21;9.30;38.00
38480;DHT22;62333;51.980;5.934;2023-02-28T16:07:54;9.30;38.20
38480;DHT22;62333;51.980;5.934;2023-02-28T16:10:21;9.30;38.20
38480;DHT22;62333;51.980;5.934;2023-02-28T16:12:52;9.20;38.20
38480;DHT22;62333;51.980;5.934;2023-02-28T16:15:21;9.20;38.30
38480;DHT22;62333;51.980;5.934;2023-02-28T16:17:47;9.10;38.30
38480;DHT22;62333;51.980;5.934;2023-02-28T16:20:31;9.00;38.30
38480;DHT22;62333;51.980;5.934;2023-02-28T16:22:57;9.00;38.50
38480;DHT22;62333;51.980;5.934;2023-02-28T16:25:38;9.00;38.60
38480;DHT22;62333;51.980;5.934;2023-02-28T16:28:11;9.00;38.80
38480;DHT22;62333;51.980;5.934;2023-02-28T16:30:38;8.90;38.80
38480;DHT22;62333;51.980;5.934;2023-02-28T16:33:04;9.00;39.00
38480;DHT22;62333;51.980;5.934;2023-02-28T16:35:29;9.00;39.20
38480;DHT22;62333;51.980;5.934;2023-02-28T16:37:55;8.90;39.20
38480;DHT22;62333;51.980;5.934;2023-02-28T16:40:23;8.90;39.30
38480;DHT22;62333;51.980;5.934;2023-02-28T16:42:52;8.90;39.40
38480;DHT22;62333;51.980;5.934;2023-02-28T16:45:24;8.90;39.50
38480;DHT22;62333;51.980;5.934;2023-02-28T16:47:50;8.90;39.60
38480;DHT22;62333;51.980;5.934;2023-02-28T16:50:18;8.90;39.70
38480;DHT22;62333;51.980;5.934;2023-02-28T16:52:44;8.90;39.80
38480;DHT22;62333;51.980;5.934;2023-02-28T16:55:10;8.90;40.00
38480;DHT22;62333;51.980;5.934;2023-02-28T16:57:36;8.90;40.10
38480;DHT22;62333;51.980;5.934;2023-02-28T17:00:05;8.90;40.10
38480;DHT22;62333;51.980;5.934;2023-02-28T17:02:34;8.90;40.30
38480;DHT22;62333;51.980;5.934;2023-02-28T17:05:00;8.90;40.50
38480;DHT22;62333;51.980;5.934;2023-02-28T17:07:25;8.90;40.60
38480;DHT22;62333;51.980;5.934;2023-02-28T17:09:51;8.90;40.70
38480;DHT22;62333;51.980;5.934;2023-02-28T17:12:17;8.90;40.70
38480;DHT22;62333;51.980;5.934;2023-02-28T17:14:42;8.90;40.80
38480;DHT22;62333;51.980;5.934;2023-02-28T17:17:17;8.90;40.90
38480;DHT22;62333;51.980;5.934;2023-02-28T17:19:43;8.90;40.90
38480;DHT22;62333;51.980;5.934;2023-02-28T17:22:10;8.90;41.00
38480;DHT22;62333;51.980;5.934;2023-02-28T17:24:36;8.90;41.10
38480;DHT22;62333;51.980;5.934;2023-02-28T17:27:01;8.90;41.10
38480;DHT22;62333;51.980;5.934;2023-02-28T17:29:27;8.90;41.20
38480;DHT22;62333;51.980;5.934;2023-02-28T17:31:53;8.90;41.20
38480;DHT22;62333;51.980;5.934;2023-02-28T17:34:18;8.90;41.20
38480;DHT22;62333;51.980;5.934;2023-02-28T17:36:50;8.90;41.30
38480;DHT22;62333;51.980;5.934;2023-02-28T17:39:18;8.90;42.00
38480;DHT22;62333;51.980;5.934;2023-02-28T17:41:54;8.80;41.40
38480;DHT22;62333;51.980;5.934;2023-02-28T17:44:21;8.80;41.50
38480;DHT22;62333;51.980;5.934;2023-02-28T17:46:48;8.80;41.60
38480;DHT22;62333;51.980;5.934;2023-02-28T17:49:15;8.80;41.70
38480;DHT22;62333;51.980;5.934;2023-02-28T17:51:41;8.80;41.70
38480;DHT22;62333;51.980;5.934;2023-02-28T17:54:07;8.80;41.70
38480;DHT22;62333;51.980;5.934;2023-02-28T17:56:32;8.70;41.70
38480;DHT22;62333;51.980;5.934;2023-02-28T17:58:58;8.70;41.90
38480;DHT22;62333;51.980;5.934;2023-02-28T18:01:24;8.70;41.90
38480;DHT22;62333;51.980;5.934;2023-02-28T18:03:53;8.70;42.10
38480;DHT22;62333;51.980;5.934;2023-02-28T18:06:24;8.60;42.20